Aérodrome :
LOGIN :

S'inscrire | Disclaimer

   EN    FR    IT 

 










Légende :    VFR   VFR Marginal   IFR   IFR Intensif   IFR Très Intensif
Visi : 
Plafond : 
>= 8 km
>= 3000ft
5 à 8 km
1000 à 3000 ft
1500m à 5 km
500 à 1000 ft
800 à 1500m
200 à 500 ft
< 800m
< 200 ft
Symboles :   Orages  Brouillard  Fortes neiges  Fortes précipitations  Vent > 20 kt
SIGMETs :   Divers  Orages  Givrage  Turbulence  Onde Orograph.  Cendres Volcan.







- Altitude de l'aérodrome : 55 ft
- Code IATA : DSA
- Voir les cartes d'approche


EGCN - Robin Hood Doncaster Sheffield

DERNIER METAR :
  • 270450Z 22010KT 9999 SCT031 11/07 Q1008

METARs EXPIRÉS :
  • 270420Z 25011KT 9999 FEW030 13/08 Q1008
  • 270350Z 24011KT CAVOK 12/07 Q1008
  • 270320Z AUTO 25011KT 9999 NCD 13/08 Q1008
  • 270250Z AUTO 24010KT 9999 NCD 12/07 Q1008
  • 270220Z AUTO 25010KT 9999 NCD 12/07 Q1009

TAF TAF EGCN
Valide du 27 à 00h jusqu'au 28 à 00h UTC


262254Z 2700/2724 24010KT 9999 SCT030
TEMPO 2706/2720 7000 SHRA
TEMPO 2706/2712 27015G25KT
PROB30
TEMPO 2710/2719 4000 +SHRA
BECMG 2712/2715 34008KT
Pas de NOTAMs connus pour ce terrain.



MET'MAP, la Météo Aéronautique d'un coup d'oeil ! - Copyright ORBIFLY Décembre 2007 - Disclaimer

ORBIFLY MET'MAP TEAM :

Programmation & Développement : Alexandra Zaïnal
Conception & Développement : Baudouin d'Aumeries
Co-Programmation & Développement : Marc-Olivier Méhu
Soutien technique & logistique : Manuel Goepfert

Contact : metmap@orbifly.com




SOURCES & CREDITS :

   NOAA